X  Schlie├čen Metar Luftfahrt Wetterdaten     EBBR Brussels Airport
Temperatur
10°C Temperatur
2°C Taupunkt
58% Feuchtigkeit



Wind
14 KM/H
9 MPH
4 M/S
8 KTS



70°
ONO
Aktuelle Wetterlage

Klar Klar
Luftdruck 1034.92 (hPa) - 30.56 (inHg)
Sichtweite 6.2 (Meile) - 10 (km)
Flughafen
Flughafen Code EBBR

Position : Brussels Airport
Entfernung: 14 (km)

Metar:
EBBR 281250Z 07008KT 040V100 CAVOK 10/02 Q1035 NOSIG

Zeit: 02-28-2021 13:50 CET